Time;durP1;ratioP1;P1;durP2;ratioP2;P2;SDS_P1;SDS_P2;PMS_P1;PMS_P2;Temp;Humidity;BMP_temperature;BMP_pressure;BME280_temperature;BME280_humidity;BME280_pressure;Samples;Min_cycle;Max_cycle;Signal;HPM_P1;HPM_P2
2021/01/07 00:00:20;;;;;;;8.65;4.55;;;;;;;6.52;70.47;93120.13;5051243;28;20072;-60
2021/01/07 00:02:45;;;;;;;7.95;4.88;;;;;;;6.42;71.44;93122.53;5050932;28;20025;-60
2021/01/07 00:05:11;;;;;;;8.75;4.13;;;;;;;6.57;70.96;93144.66;5051089;28;20025;-60
2021/01/07 00:07:36;;;;;;;9.55;5.10;;;;;;;6.49;71.96;93148.59;5051013;28;20047;-60
2021/01/07 00:10:04;;;;;;;7.57;4.97;;;;;;;6.57;71.88;93155.66;5050965;28;20489;-60
2021/01/07 00:12:29;;;;;;;16.95;8.60;;;;;;;6.57;72.05;93147.41;5050963;28;20029;-57
2021/01/07 00:14:55;;;;;;;11.25;6.32;;;;;;;6.57;72.54;93149.41;5050949;28;20544;-58
2021/01/07 00:17:20;;;;;;;11.07;5.90;;;;;;;6.59;72.40;93153.09;5050871;28;20029;-59
2021/01/07 00:19:46;;;;;;;14.15;6.97;;;;;;;6.66;72.01;93170.94;5051218;28;20040;-49
2021/01/07 00:22:11;;;;;;;11.00;6.07;;;;;;;6.66;71.70;93146.97;5050871;28;20374;-50
2021/01/07 00:24:36;;;;;;;9.45;4.80;;;;;;;6.65;72.04;93159.22;5050817;28;20094;-52
2021/01/07 00:27:02;;;;;;;5.85;4.30;;;;;;;6.59;72.40;93166.06;5051070;28;20116;-50
2021/01/07 00:29:27;;;;;;;9.40;4.97;;;;;;;6.68;72.28;93171.13;5050899;28;20090;-54
2021/01/07 00:31:53;;;;;;;6.15;4.53;;;;;;;6.69;71.96;93167.13;5050790;28;20025;-55
2021/01/07 00:34:18;;;;;;;7.70;4.43;;;;;;;6.70;71.76;93158.38;5051050;28;20034;-53
2021/01/07 00:36:44;;;;;;;7.85;4.70;;;;;;;6.64;71.52;93157.00;5050827;28;20110;-53
2021/01/07 00:39:09;;;;;;;8.70;4.60;;;;;;;6.58;72.17;93159.84;5050641;28;20119;-58
2021/01/07 00:41:34;;;;;;;9.10;4.57;;;;;;;6.57;71.90;93152.16;5050717;28;20028;-59
2021/01/07 00:44:00;;;;;;;6.65;4.15;;;;;;;6.51;72.44;93157.78;5050520;28;20025;-58
2021/01/07 00:46:25;;;;;;;8.43;5.30;;;;;;;6.47;72.15;93140.16;5053277;28;20017;-58
2021/01/07 00:48:51;;;;;;;9.40;4.40;;;;;;;6.54;72.22;93142.25;5054413;28;20032;-59
2021/01/07 00:51:16;;;;;;;9.73;5.30;;;;;;;6.45;72.67;93137.94;5054157;28;20401;-60
2021/01/07 00:53:42;;;;;;;12.48;5.32;;;;;;;6.50;72.67;93144.56;5054264;28;20021;-58
2021/01/07 00:56:07;;;;;;;8.75;4.85;;;;;;;6.58;72.29;93145.41;5054389;28;20406;-56
2021/01/07 00:58:32;;;;;;;9.00;4.57;;;;;;;6.56;72.09;93132.22;5054400;28;20032;-58
2021/01/07 01:00:58;;;;;;;7.68;4.20;;;;;;;6.34;72.19;93110.75;5053933;28;20478;-49
2021/01/07 01:03:23;;;;;;;6.57;4.10;;;;;;;6.47;72.12;93131.94;5054028;28;20482;-59
2021/01/07 01:05:49;;;;;;;7.22;4.85;;;;;;;6.45;72.45;93132.47;5053941;28;20383;-48
2021/01/07 01:08:16;;;;;;;8.80;4.88;;;;;;;6.45;72.75;93137.22;5053884;28;20021;-63
2021/01/07 01:10:45;;;;;;;6.65;3.92;;;;;;;6.40;72.86;93122.34;5054151;28;20033;-64
2021/01/07 01:13:11;;;;;;;8.68;4.40;;;;;;;6.37;72.31;93125.38;5053880;28;20021;-60
2021/01/07 01:15:37;;;;;;;6.78;3.65;;;;;;;6.35;72.94;93141.63;5052286;28;20033;-59
2021/01/07 01:18:03;;;;;;;8.80;3.88;;;;;;;6.40;72.73;93130.56;5053806;28;20025;-59
2021/01/07 01:20:28;;;;;;;6.28;3.80;;;;;;;6.36;72.77;93115.69;5053891;28;20033;-58
2021/01/07 01:22:54;;;;;;;7.90;3.95;;;;;;;6.23;72.82;93107.50;5053681;28;20390;-58
2021/01/07 01:25:19;;;;;;;7.68;3.72;;;;;;;6.20;73.16;93114.03;5053811;28;20028;-59
2021/01/07 01:27:45;;;;;;;7.00;4.18;;;;;;;6.19;73.58;93116.03;5053655;28;20025;-61
2021/01/07 01:30:12;;;;;;;4.32;3.42;;;;;;;6.11;73.66;93109.69;5053525;28;20763;-61
2021/01/07 01:32:42;;;;;;;7.45;3.70;;;;;;;6.24;73.02;93106.94;5053919;28;20074;-61
2021/01/07 01:35:08;;;;;;;6.72;3.95;;;;;;;6.24;72.90;93101.47;5053547;28;20017;-58
2021/01/07 01:37:37;;;;;;;9.52;5.05;;;;;;;6.17;72.57;93069.25;5053472;28;20425;-58
2021/01/07 01:40:05;;;;;;;10.73;4.88;;;;;;;6.30;72.12;93087.66;5053349;28;20104;-57
2021/01/07 01:42:30;;;;;;;5.93;3.58;;;;;;;6.07;73.42;93079.88;5053308;28;20501;-57
2021/01/07 01:44:55;;;;;;;10.40;5.05;;;;;;;5.99;73.56;93070.09;5053236;28;20025;-56
2021/01/07 01:47:21;;;;;;;4.93;3.80;;;;;;;6.02;73.72;93080.72;5053033;28;20130;-57
2021/01/07 01:49:51;;;;;;;6.30;4.07;;;;;;;5.96;74.01;93084.84;5053156;28;20025;-58
2021/01/07 01:52:17;;;;;;;4.55;3.38;;;;;;;5.96;74.30;93080.09;5052901;28;20021;-57
2021/01/07 01:54:44;;;;;;;8.10;3.72;;;;;;;6.09;74.00;93079.34;5035471;28;20021;-58
2021/01/07 01:57:11;;;;;;;5.47;2.90;;;;;;;6.12;73.49;93092.00;5052205;28;20029;-57
2021/01/07 01:59:37;;;;;;;4.55;3.25;;;;;;;6.19;72.89;93080.41;5053063;28;20064;-58
2021/01/07 02:02:06;;;;;;;5.30;3.63;;;;;;;6.29;72.72;93089.66;5053134;28;20072;-58
2021/01/07 02:04:32;;;;;;;5.57;3.35;;;;;;;6.26;72.89;93087.25;5052960;28;20438;-58
2021/01/07 02:06:58;;;;;;;7.22;3.42;;;;;;;6.13;72.38;93053.09;5052717;28;20032;-59
2021/01/07 02:09:24;;;;;;;7.95;4.22;;;;;;;6.31;72.32;93081.66;5052790;28;20581;-59
2021/01/07 02:11:49;;;;;;;5.32;3.10;;;;;;;6.20;72.41;93059.19;5052774;28;20068;-58
2021/01/07 02:14:14;;;;;;;7.40;3.50;;;;;;;6.22;73.13;93075.84;5034904;28;20048;-55
2021/01/07 02:16:40;;;;;;;5.47;3.35;;;;;;;6.20;73.03;93056.47;5052693;28;20024;-59
2021/01/07 02:19:05;;;;;;;5.05;3.70;;;;;;;6.23;73.20;93056.16;5052660;28;20036;-58
2021/01/07 02:21:36;;;;;;;4.93;3.30;;;;;;;6.38;71.95;93061.81;5052710;28;20048;-58
2021/01/07 02:24:02;;;;;;;7.18;4.82;;;;;;;6.25;72.76;93064.59;5052489;28;20032;-53
2021/01/07 02:26:27;;;;;;;7.45;3.65;;;;;;;6.18;73.02;93059.00;5052477;28;20486;-48
2021/01/07 02:28:53;;;;;;;13.35;6.97;;;;;;;6.24;72.54;93057.59;5052572;28;20508;-52
2021/01/07 02:31:18;;;;;;;18.23;7.80;;;;;;;6.20;72.99;93065.44;5052387;28;20032;-51
2021/01/07 02:33:44;;;;;;;9.85;4.25;;;;;;;5.99;73.96;93061.88;5052400;28;20028;-55
2021/01/07 02:36:10;;;;;;;7.32;2.97;;;;;;;6.01;74.33;93053.84;5053927;28;20490;-51
2021/01/07 02:38:36;;;;;;;4.00;3.00;;;;;;;5.95;73.41;93032.06;5085261;28;20027;-52
2021/01/07 02:41:02;;;;;;;4.90;2.60;;;;;;;5.98;73.53;93033.72;5092494;28;20089;-55
2021/01/07 02:43:27;;;;;;;4.55;3.08;;;;;;;6.07;73.04;93038.03;5092371;28;20028;-55
2021/01/07 02:45:53;;;;;;;4.20;2.85;;;;;;;6.09;73.15;93040.97;5092331;28;20024;-57
2021/01/07 02:48:19;;;;;;;4.97;2.88;;;;;;;6.14;73.23;93042.88;5092209;28;20441;-57
2021/01/07 02:50:44;;;;;;;4.30;3.13;;;;;;;6.12;73.16;93045.41;5092302;28;20050;-56
2021/01/07 02:53:09;;;;;;;5.18;2.58;;;;;;;6.13;73.03;93047.63;5092182;28;20040;-57
2021/01/07 02:55:35;;;;;;;7.53;3.35;;;;;;;6.05;73.62;93037.81;5092236;28;20061;-59
2021/01/07 02:58:00;;;;;;;4.07;3.28;;;;;;;5.97;73.70;93039.75;5092204;28;20519;-58
2021/01/07 03:00:26;;;;;;;5.10;3.40;;;;;;;5.97;73.88;93042.47;5092124;28;20027;-58
2021/01/07 03:02:51;;;;;;;4.60;2.97;;;;;;;6.13;73.40;93055.84;5092096;28;20465;-59
2021/01/07 03:05:17;;;;;;;7.07;4.35;;;;;;;6.01;72.92;93040.91;5091954;28;20024;-58
2021/01/07 03:07:42;;;;;;;5.32;3.28;;;;;;;5.87;73.73;93053.13;5091979;28;20578;-59
2021/01/07 03:10:09;;;;;;;7.32;3.35;;;;;;;6.02;73.21;93064.28;5091954;28;20028;-55
2021/01/07 03:12:34;;;;;;;5.45;3.20;;;;;;;6.01;73.38;93067.56;5091894;28;20035;-59
2021/01/07 03:15:00;;;;;;;9.65;4.47;;;;;;;5.89;73.65;93058.81;5091866;28;20028;-59
2021/01/07 03:17:25;;;;;;;12.45;4.13;;;;;;;5.99;73.61;93054.41;5091892;28;20039;-60
2021/01/07 03:19:51;;;;;;;11.05;4.82;;;;;;;6.09;73.57;93058.16;5091918;28;20024;-62
2021/01/07 03:22:16;;;;;;;8.80;4.75;;;;;;;6.06;73.41;93053.72;5091745;28;20024;-56
2021/01/07 03:24:42;;;;;;;9.90;5.63;;;;;;;6.08;72.82;93053.22;5091772;28;20028;-59
2021/01/07 03:27:07;;;;;;;8.32;4.28;;;;;;;5.82;72.93;93031.31;5091788;28;20032;-63
2021/01/07 03:29:33;;;;;;;12.02;4.45;;;;;;;5.97;73.77;93065.16;5091814;28;20020;-60
2021/01/07 03:31:58;;;;;;;7.93;3.70;;;;;;;5.92;73.21;93049.53;5091550;28;20034;-60
2021/01/07 03:34:23;;;;;;;7.70;3.90;;;;;;;6.00;73.26;93052.38;5091621;28;20024;-58
2021/01/07 03:36:49;;;;;;;11.02;5.25;;;;;;;6.02;72.70;93069.75;5090095;28;20540;-52
2021/01/07 03:39:14;;;;;;;10.65;5.65;;;;;;;6.06;72.70;93078.41;5091285;28;20024;-54
2021/01/07 03:41:40;;;;;;;9.52;3.83;;;;;;;6.10;72.29;93064.41;5091525;28;20489;-54
2021/01/07 03:44:05;;;;;;;5.50;3.30;;;;;;;6.04;71.92;93069.97;5091361;28;20039;-58
2021/01/07 03:46:31;;;;;;;7.13;4.53;;;;;;;5.95;72.48;93064.19;5091395;28;20035;-60
2021/01/07 03:48:56;;;;;;;5.07;3.75;;;;;;;5.97;72.48;93056.19;5091534;28;20052;-58
2021/01/07 03:51:22;;;;;;;4.65;3.00;;;;;;;5.92;72.45;93057.75;5091393;28;20027;-58
2021/01/07 03:53:47;;;;;;;6.45;2.58;;;;;;;5.79;72.99;93067.94;5091500;28;20107;-58
2021/01/07 03:56:12;;;;;;;4.70;2.90;;;;;;;5.82;73.70;93066.91;5091414;28;20382;-59
2021/01/07 03:58:38;;;;;;;7.55;3.88;;;;;;;5.71;73.88;93051.44;5091375;28;20024;-59
2021/01/07 04:01:03;;;;;;;5.25;2.63;;;;;;;5.90;73.15;93052.06;5091451;28;20078;-59
2021/01/07 04:03:29;;;;;;;4.13;2.83;;;;;;;5.78;73.64;93048.03;5091340;28;20021;-59
2021/01/07 04:05:55;;;;;;;5.60;2.90;;;;;;;5.77;73.42;93046.56;5091279;28;20109;-58
2021/01/07 04:08:21;;;;;;;7.75;4.55;;;;;;;5.72;73.56;93058.38;5091213;28;20071;-56
2021/01/07 04:10:46;;;;;;;11.20;4.82;;;;;;;5.78;74.06;93056.25;5091325;28;20048;-58
2021/01/07 04:13:11;;;;;;;7.90;4.65;;;;;;;5.66;74.07;93057.00;5091266;28;20094;-58
2021/01/07 04:15:37;;;;;;;6.97;4.47;;;;;;;5.67;74.19;93061.22;5091212;28;20032;-58
2021/01/07 04:18:02;;;;;;;21.63;9.57;;;;;;;5.59;74.05;93058.34;5091362;28;20030;-58
2021/01/07 04:20:28;;;;;;;18.73;8.25;;;;;;;5.21;75.30;93059.78;5092330;28;20067;-56
2021/01/07 04:22:53;;;;;;;11.23;6.07;;;;;;;5.06;75.61;93032.19;5095158;28;20020;-57
2021/01/07 04:25:18;;;;;;;17.13;9.95;;;;;;;5.19;75.85;93045.91;5094906;28;20546;-56
2021/01/07 04:27:44;;;;;;;23.10;10.10;;;;;;;5.15;75.81;93029.81;5095004;28;20027;-59
2021/01/07 04:30:10;;;;;;;4.80;3.38;;;;;;;5.36;75.43;93043.59;5095224;28;20032;-59
2021/01/07 04:32:36;;;;;;;3.70;2.10;;;;;;;5.48;75.14;93049.63;5095036;28;20028;-59
2021/01/07 04:35:02;;;;;;;7.25;2.55;;;;;;;5.57;74.69;93046.47;5094830;28;20016;-59
2021/01/07 04:37:27;;;;;;;3.40;2.47;;;;;;;5.63;74.36;93050.56;5094893;28;20024;-59
2021/01/07 04:39:53;;;;;;;4.57;2.63;;;;;;;5.70;73.79;93055.41;5094907;28;20023;-59
2021/01/07 04:42:18;;;;;;;5.65;2.38;;;;;;;5.83;73.85;93065.63;5094754;28;20035;-59
2021/01/07 04:44:44;;;;;;;4.20;2.30;;;;;;;5.95;73.26;93075.91;5094587;28;20105;-59
2021/01/07 04:47:11;;;;;;;3.20;1.98;;;;;;;6.03;72.77;93079.47;5076367;28;20214;-60
2021/01/07 04:49:37;;;;;;;3.30;2.33;;;;;;;6.13;72.66;93071.53;5094749;28;20103;-60
2021/01/07 04:52:03;;;;;;;2.63;2.03;;;;;;;6.08;71.86;93067.66;5076428;28;20557;-60
2021/01/07 04:54:28;;;;;;;3.42;1.90;;;;;;;6.08;72.07;93073.16;5094471;28;20051;-60
2021/01/07 04:56:53;;;;;;;3.53;1.83;;;;;;;5.98;72.42;93061.13;5094574;28;20016;-59
2021/01/07 04:59:19;;;;;;;3.33;2.00;;;;;;;5.93;72.88;93072.22;5094426;28;20051;-59
2021/01/07 05:01:46;;;;;;;3.00;1.95;;;;;;;5.78;72.93;93072.69;5094379;28;20110;-58
2021/01/07 05:04:11;;;;;;;8.25;4.82;;;;;;;5.67;73.79;93067.44;5094266;28;20111;-58
2021/01/07 05:06:37;;;;;;;6.57;3.55;;;;;;;5.71;73.52;93054.16;5076341;28;20120;-58
2021/01/07 05:09:04;;;;;;;4.65;3.00;;;;;;;5.75;73.78;93071.03;5094233;28;20085;-59
2021/01/07 05:11:30;;;;;;;3.83;2.45;;;;;;;5.86;73.19;93081.78;5094110;28;20034;-58
2021/01/07 05:14:15;;;;;;;3.75;2.13;;;;;;;5.19;73.44;92997.38;5094199;28;20056;-58
2021/01/07 05:16:40;;;;;;;6.30;3.92;;;;;;;5.71;73.83;93078.81;5094062;28;20038;-59
2021/01/07 05:19:07;;;;;;;15.05;7.22;;;;;;;5.78;73.32;93082.94;5094016;28;20024;-59
2021/01/07 05:21:34;;;;;;;19.13;10.70;;;;;;;5.79;73.67;93090.63;5094044;28;20115;-57
2021/01/07 05:24:00;;;;;;;9.13;5.70;;;;;;;5.72;74.02;93077.53;5094102;28;20470;-58
2021/01/07 05:26:25;;;;;;;8.48;4.70;;;;;;;5.67;74.24;93080.41;5094016;28;20056;-59
2021/01/07 05:28:53;;;;;;;18.25;8.23;;;;;;;5.78;73.98;93082.94;5093928;28;20570;-50
2021/01/07 05:31:22;;;;;;;6.75;4.78;;;;;;;5.85;73.72;93077.56;5093088;28;20028;-50
2021/01/07 05:33:48;;;;;;;17.55;7.43;;;;;;;5.78;73.95;93089.13;5093310;28;20030;-47
2021/01/07 05:36:16;;;;;;;5.78;4.63;;;;;;;5.87;74.15;93088.00;5093672;28;20032;-51
2021/01/07 05:38:42;;;;;;;6.35;4.35;;;;;;;5.82;74.00;93084.09;5093568;28;20032;-56
2021/01/07 05:41:12;;;;;;;16.48;10.07;;;;;;;5.83;74.41;93087.53;5093451;28;20081;-52
2021/01/07 05:43:38;;;;;;;45.50;24.00;;;;;;;5.98;74.25;93094.00;5075508;28;20035;-55
2021/01/07 05:46:06;;;;;;;19.13;9.50;;;;;;;5.97;73.83;93100.78;5093505;28;20027;-50
2021/01/07 05:48:32;;;;;;;17.27;9.80;;;;;;;5.99;73.47;93090.03;5093378;28;20432;-62
2021/01/07 05:50:57;;;;;;;13.30;6.32;;;;;;;6.18;72.50;93089.16;5093623;28;20024;-63
2021/01/07 05:53:23;;;;;;;9.43;5.00;;;;;;;6.14;72.09;93086.72;5075561;28;20145;-63
2021/01/07 05:55:49;;;;;;;10.27;6.05;;;;;;;6.15;72.76;93093.66;5075310;28;20507;-64
2021/01/07 05:58:15;;;;;;;9.18;5.03;;;;;;;5.91;73.22;93080.22;5075281;28;20412;-64
2021/01/07 06:00:42;;;;;;;8.70;4.28;;;;;;;5.83;74.67;93088.28;5075106;28;20027;-66
2021/01/07 06:03:08;;;;;;;7.13;3.90;;;;;;;5.88;73.59;93075.78;5066577;28;20571;-62
2021/01/07 06:05:34;;;;;;;13.98;6.88;;;;;;;5.79;74.82;93073.44;5035088;28;20074;-52
2021/01/07 06:08:01;;;;;;;18.73;10.10;;;;;;;5.86;74.69;93081.78;5035138;28;20041;-62
2021/01/07 06:10:27;;;;;;;279.05;96.68;;;;;;;5.91;74.80;93091.91;5052980;28;20567;-61
2021/01/07 06:12:53;;;;;;;157.05;67.10;;;;;;;5.49;75.17;93064.78;5052896;28;20028;-64
2021/01/07 06:15:20;;;;;;;95.07;51.22;;;;;;;5.78;75.52;93094.59;5035022;28;20041;-61
2021/01/07 06:17:46;;;;;;;42.80;24.90;;;;;;;5.84;74.69;93075.38;5052677;28;20559;-60
2021/01/07 06:20:16;;;;;;;107.55;60.17;;;;;;;5.82;74.92;93089.56;5051308;28;20047;-60
2021/01/07 06:22:44;;;;;;;;;;;;;;;5.81;75.29;93096.31;5070537;28;20024;-59
2021/01/07 06:25:12;;;;;;;54.17;30.83;;;;;;;5.78;75.02;93089.13;5058127;28;19916;-59
2021/01/07 06:27:40;;;;;;;24.40;12.07;;;;;;;5.70;75.07;93091.03;5066210;28;20032;-61
2021/01/07 06:30:06;;;;;;;11.98;5.10;;;;;;;6.03;71.93;93093.16;5072492;28;20028;-61
2021/01/07 06:32:31;;;;;;;44.28;22.10;;;;;;;6.11;72.53;93082.28;5072407;28;20039;-61
2021/01/07 06:34:58;;;;;;;22.88;13.50;;;;;;;6.13;72.66;93091.47;5072447;28;20027;-61
2021/01/07 06:37:34;;;;;;;27.25;10.57;;;;;;;6.27;71.63;93080.50;5072340;28;20078;-58
2021/01/07 06:40:03;;;;;;;8.15;5.13;;;;;;;6.51;70.23;93086.47;5059261;28;20106;-58
2021/01/07 06:42:28;;;;;;;3.03;2.45;;;;;;;6.61;69.64;93086.75;5054620;28;20115;-56
2021/01/07 06:44:57;;;;;;;23.73;9.98;;;;;;;6.76;69.22;93081.41;5051811;28;20037;-52
2021/01/07 06:47:22;;;;;;;36.33;17.13;;;;;;;6.70;69.18;93083.56;5051941;28;20069;-55
2021/01/07 06:49:49;;;;;;;34.20;17.08;;;;;;;6.85;69.33;93068.00;5052169;28;20033;-55
2021/01/07 06:52:15;;;;;;;20.17;9.48;;;;;;;6.96;68.92;93077.97;5062264;28;20067;-57
2021/01/07 06:54:41;;;;;;;38.70;18.98;;;;;;;7.23;67.00;93075.84;5070933;28;20466;-52
2021/01/07 06:57:16;;;;;;;26.17;11.20;;;;;;;7.11;67.62;93091.84;5071743;28;20028;-58
2021/01/07 06:59:59;;;;;;;43.40;15.07;;;;;;;7.06;68.26;93089.94;5071930;28;20099;-59
2021/01/07 07:02:25;;;;;;;42.70;18.30;;;;;;;7.19;68.73;93094.66;5070447;28;20111;-57
2021/01/07 07:05:09;;;;;;;21.55;9.85;;;;;;;7.25;67.61;93095.28;5051701;28;20486;-59
2021/01/07 07:07:37;;;;;;;20.25;9.40;;;;;;;7.39;67.09;93100.16;5051530;28;20115;-59
2021/01/07 07:10:18;;;;;;;20.52;9.88;;;;;;;7.52;66.68;93099.34;5051462;28;20025;-58
2021/01/07 07:12:49;;;;;;;13.15;6.28;;;;;;;7.65;66.54;93096.50;5051628;28;20086;-55
2021/01/07 07:15:16;;;;;;;21.38;10.40;;;;;;;7.53;67.17;93087.09;5055570;28;20021;-56
2021/01/07 07:17:44;;;;;;;26.73;12.73;;;;;;;7.61;67.96;93087.88;5071428;28;20515;-54
2021/01/07 07:20:10;;;;;;;33.63;15.82;;;;;;;7.72;67.51;93104.06;5052987;28;20097;-57
2021/01/07 07:22:42;;;;;;;45.10;20.98;;;;;;;7.52;67.54;93083.59;5070646;28;20039;-55
2021/01/07 07:25:08;;;;;;;66.60;31.15;;;;;;;7.56;67.21;93105.97;5091644;28;20028;-55
2021/01/07 07:27:53;;;;;;;50.30;24.73;;;;;;;7.57;67.90;93123.94;5091714;28;20064;-56
2021/01/07 07:30:28;;;;;;;28.60;14.85;;;;;;;7.47;67.18;93111.94;5091571;28;20680;-55
2021/01/07 07:32:58;;;;;;;15.63;8.05;;;;;;;7.57;67.74;93129.44;5069583;28;20043;-52
2021/01/07 07:35:25;;;;;;;3.05;2.20;;;;;;;7.65;64.70;93127.47;5053487;28;20105;-55
2021/01/07 07:37:51;;;;;;;3.15;2.20;;;;;;;7.52;64.84;93141.28;5058648;28;20412;-60
2021/01/07 07:40:36;;;;;;;2.88;2.22;;;;;;;7.52;65.06;93138.53;5056457;28;20028;-59
2021/01/07 07:43:03;;;;;;;4.30;3.08;;;;;;;7.50;65.50;93138.34;5058026;28;20486;-59
2021/01/07 07:45:32;;;;;;;5.93;2.72;;;;;;;7.61;64.47;93131.81;5059939;28;20017;-59
2021/01/07 07:47:58;;;;;;;3.28;2.42;;;;;;;7.56;65.18;93141.69;5062340;28;20110;-56
2021/01/07 07:50:28;;;;;;;7.32;4.10;;;;;;;7.53;66.02;93136.53;5058999;28;20029;-59
2021/01/07 07:53:06;;;;;;;10.95;6.47;;;;;;;7.66;66.67;93155.69;5059498;28;20094;-59
2021/01/07 07:55:42;;;;;;;10.18;4.65;;;;;;;7.40;66.78;93123.59;5058605;28;20036;-58
2021/01/07 07:58:15;;;;;;;5.47;3.03;;;;;;;7.51;67.09;93150.78;5063267;28;20086;-56
2021/01/07 08:00:57;;;;;;;4.97;2.88;;;;;;;7.55;66.42;93153.22;5062154;28;20116;-58
2021/01/07 08:03:30;;;;;;;17.05;9.48;;;;;;;7.41;66.50;93151.78;5061985;28;20781;-59
2021/01/07 08:06:00;;;;;;;8.07;4.25;;;;;;;7.51;67.07;93150.78;5064507;28;20028;-60
2021/01/07 08:08:28;;;;;;;9.10;4.50;;;;;;;7.59;66.04;93148.84;5066411;28;20033;-60
2021/01/07 08:10:55;;;;;;;9.45;6.10;;;;;;;7.53;67.39;93147.53;5072754;28;20024;-60
2021/01/07 08:13:22;;;;;;;9.65;6.50;;;;;;;7.65;67.96;93148.72;5072915;28;20025;-60
2021/01/07 08:15:49;;;;;;;12.82;7.30;;;;;;;7.75;67.79;93151.72;5065216;28;20108;-60
2021/01/07 08:18:25;;;;;;;6.97;4.75;;;;;;;7.63;67.32;93141.00;5063212;28;20017;-59
2021/01/07 08:20:53;;;;;;;7.60;4.47;;;;;;;7.68;66.49;93147.66;5075084;28;20517;-60
2021/01/07 08:36:34;;;;;;;19.00;11.68;;;;;;;8.58;64.22;93157.78;5121534;27;20353;-50
2021/01/07 08:38:59;;;;;;;11.70;7.40;;;;;;;8.36;64.27;93150.88;5117213;28;20036;-48
2021/01/07 08:41:30;;;;;;;8.63;5.65;;;;;;;8.36;64.32;93157.13;5119343;27;20047;-48
2021/01/07 08:43:58;;;;;;;9.25;5.60;;;;;;;8.32;64.70;93147.75;5117200;27;20036;-45
2021/01/07 08:46:29;;;;;;;26.67;12.80;;;;;;;8.12;65.04;93145.78;5124893;28;20735;-47
2021/01/07 08:49:00;;;;;;;14.02;8.32;;;;;;;8.10;65.75;93149.03;5122391;28;20093;-50
2021/01/07 08:51:26;;;;;;;8.88;5.70;;;;;;;8.00;66.87;93164.56;5123370;27;20020;-47
2021/01/07 08:53:55;;;;;;;41.33;16.63;;;;;;;7.88;67.68;93168.88;5115389;28;20016;-50
2021/01/07 08:56:34;;;;;;;25.75;12.98;;;;;;;7.66;68.51;93172.19;5117959;28;20038;-49
2021/01/07 09:12:13;;;;;;;9.00;6.82;;;;;;;8.01;66.70;93234.75;5127890;27;20345;-60
2021/01/07 09:14:54;;;;;;;7.45;5.22;;;;;;;7.81;67.56;93221.03;5115120;27;20073;-58
2021/01/07 09:17:25;;;;;;;13.15;5.93;;;;;;;7.53;67.95;93205.94;5126484;28;20565;-58
2021/01/07 09:19:51;;;;;;;9.82;4.68;;;;;;;7.40;69.08;93244.44;5126793;28;20037;-59
2021/01/07 09:22:20;;;;;;;5.05;3.95;;;;;;;7.26;69.31;93240.25;5128071;27;20503;-59
2021/01/07 09:24:46;;;;;;;6.45;4.32;;;;;;;7.21;69.85;93245.88;5128023;27;20096;-56
2021/01/07 09:27:13;;;;;;;9.05;4.68;;;;;;;7.05;69.93;93236.72;5124398;27;20508;-59
2021/01/07 09:29:39;;;;;;;8.73;4.47;;;;;;;6.98;70.95;93253.09;5117764;27;20077;-60
2021/01/07 09:32:06;;;;;;;6.25;5.07;;;;;;;7.00;72.18;93251.28;5116102;28;20019;-59
2021/01/07 09:34:32;;;;;;;7.50;4.43;;;;;;;7.04;71.99;93259.94;5117205;28;20016;-58
2021/01/07 09:37:21;;;;;;;6.03;4.45;;;;;;;6.92;73.57;93260.69;5116820;27;20020;-56
2021/01/07 09:39:49;;;;;;;11.73;4.88;;;;;;;6.97;74.83;93254.38;5105360;28;20079;-58
2021/01/07 09:42:17;;;;;;;3.80;3.10;;;;;;;6.81;74.86;93253.44;5119231;28;20024;-58
2021/01/07 09:44:42;;;;;;;4.53;3.38;;;;;;;6.76;75.67;93252.25;5115709;27;20016;-57
2021/01/07 09:47:08;;;;;;;10.40;5.07;;;;;;;6.81;75.55;93239.72;5117551;27;20046;-56
2021/01/07 09:49:35;;;;;;;7.50;4.93;;;;;;;6.97;75.65;93246.13;5117067;28;20012;-60
2021/01/07 09:52:01;;;;;;;10.77;4.85;;;;;;;6.84;74.48;93249.63;5115545;27;20023;-58
2021/01/07 09:54:27;;;;;;;6.10;4.00;;;;;;;6.74;75.06;93234.84;5117685;27;20019;-56
2021/01/07 09:56:54;;;;;;;3.72;3.35;;;;;;;6.84;73.69;93242.13;5112358;28;20024;-58
2021/01/07 09:59:23;;;;;;;15.27;7.45;;;;;;;6.95;73.93;93243.94;5127303;27;20102;-56
2021/01/07 10:02:08;;;;;;;;;;;;;;;7.01;74.32;93258.28;5107309;28;20036;-48
2021/01/07 10:04:34;;;;;;;6.80;4.95;;;;;;;6.76;74.80;93248.78;5119954;28;19915;-49
2021/01/07 10:07:00;;;;;;;4.47;3.97;;;;;;;6.68;74.65;93245.94;5126088;27;20024;-55
2021/01/07 10:09:27;;;;;;;5.85;3.83;;;;;;;6.63;75.63;93241.28;5122840;27;20050;-58
2021/01/07 10:11:55;;;;;;;3.28;2.88;;;;;;;6.65;75.01;93241.50;5109983;27;20776;-55
2021/01/07 10:14:21;;;;;;;6.22;3.65;;;;;;;6.67;74.70;93235.50;5091876;28;20559;-55
2021/01/07 10:16:54;;;;;;;3.50;2.90;;;;;;;6.70;74.42;93226.94;5109766;28;20050;-55
2021/01/07 10:19:21;;;;;;;5.53;4.25;;;;;;;6.58;74.44;93228.41;5103362;27;20032;-53
2021/01/07 10:21:48;;;;;;;4.20;3.53;;;;;;;6.45;74.69;93225.72;5100638;28;20092;-55
2021/01/07 10:24:15;;;;;;;4.07;3.40;;;;;;;6.38;74.48;93231.06;5094790;28;20082;-53
2021/01/07 10:26:40;;;;;;;5.05;3.58;;;;;;;6.41;74.97;93238.25;5102044;28;20024;-54
2021/01/07 10:29:06;;;;;;;5.72;4.28;;;;;;;6.32;75.36;93244.88;5099700;28;20380;-50
2021/01/07 10:31:31;;;;;;;5.57;4.63;;;;;;;6.40;75.50;93243.00;5104101;28;20027;-54
2021/01/07 10:33:57;;;;;;;6.18;5.40;;;;;;;6.31;75.18;93217.97;5097652;28;20028;-47
2021/01/07 10:36:22;;;;;;;4.97;4.00;;;;;;;6.49;75.23;93222.63;5095727;28;20500;-49
2021/01/07 10:38:48;;;;;;;5.65;4.82;;;;;;;6.51;75.19;93220.09;5111766;28;20024;-51
2021/01/07 10:41:15;;;;;;;7.57;5.70;;;;;;;6.38;74.88;93192.69;5111642;28;20020;-48
2021/01/07 10:43:41;;;;;;;9.75;7.00;;;;;;;6.70;74.59;93220.72;5111638;28;20488;-49
2021/01/07 10:46:07;;;;;;;7.82;5.38;;;;;;;6.53;74.95;93226.53;5104794;28;20032;-51
2021/01/07 10:48:35;;;;;;;6.32;4.95;;;;;;;6.44;74.85;93221.47;5102171;28;20019;-50
2021/01/07 10:51:02;;;;;;;6.07;5.03;;;;;;;6.38;75.06;93222.84;5103757;28;20022;-51
2021/01/07 10:53:44;;;;;;;7.03;5.80;;;;;;;6.52;75.38;93240.78;5110892;28;20418;-52
2021/01/07 10:56:36;;;;;;;13.70;7.55;;;;;;;6.46;75.35;93238.13;5096602;28;20027;-55
2021/01/07 10:59:20;;;;;;;9.73;5.88;;;;;;;6.51;74.36;93229.06;5102986;28;20070;-53
2021/01/07 11:02:07;;;;;;;8.52;5.38;;;;;;;6.64;74.51;93233.81;5105742;28;20114;-54
2021/01/07 11:05:01;;;;;;;7.72;4.85;;;;;;;6.56;75.27;93244.66;5110198;28;20035;-54
2021/01/07 11:07:35;;;;;;;8.68;4.72;;;;;;;6.51;74.91;93233.81;5111002;28;20024;-54
2021/01/07 11:10:06;;;;;;;7.55;5.68;;;;;;;6.50;74.36;93227.59;5097089;28;20135;-52
2021/01/07 11:12:51;;;;;;;6.38;4.53;;;;;;;6.29;75.02;93224.00;5090746;28;20043;-46
2021/01/07 11:15:19;;;;;;;7.90;5.68;;;;;;;6.34;75.57;93233.38;5092488;28;20518;-46
2021/01/07 11:18:08;;;;;;;6.70;5.10;;;;;;;6.49;74.26;93230.88;5099252;28;20132;-47
2021/01/07 11:20:37;;;;;;;8.93;6.20;;;;;;;6.61;74.95;93249.31;5100963;28;20036;-46
2021/01/07 11:23:04;;;;;;;20.40;9.82;;;;;;;6.61;75.00;93230.13;5107492;28;20165;-46
2021/01/07 11:25:30;;;;;;;16.85;9.65;;;;;;;6.56;75.45;93243.94;5104473;28;20535;-46
2021/01/07 11:27:56;;;;;;;11.55;8.18;;;;;;;6.59;75.14;93234.66;5100374;28;20023;-47
2021/01/07 11:30:22;;;;;;;8.18;5.80;;;;;;;6.72;74.88;93240.88;5100425;28;20030;-49
2021/01/07 11:32:48;;;;;;;8.15;5.38;;;;;;;6.70;75.17;93228.94;5101019;28;20024;-46
2021/01/07 11:35:14;;;;;;;8.02;5.13;;;;;;;6.66;75.17;93223.03;5100017;28;20050;-47
2021/01/07 11:37:42;;;;;;;8.57;6.15;;;;;;;6.67;74.97;93230.75;5098345;28;20704;-47
2021/01/07 11:40:36;;;;;;;9.45;6.25;;;;;;;6.88;75.16;93228.84;5101475;28;20039;-47
2021/01/07 11:43:04;;;;;;;10.35;5.50;;;;;;;6.92;74.13;93227.75;5101222;28;20063;-47
2021/01/07 11:45:31;;;;;;;7.67;5.37;;;;;;;6.87;73.58;93237.59;5100335;28;20522;-46
2021/01/07 11:48:05;;;;;;;4.15;3.00;;;;;;;6.88;71.94;93237.06;5102051;28;20020;-48
2021/01/07 11:50:36;;;;;;;6.55;4.45;;;;;;;6.78;72.76;93235.25;5104574;28;20032;-47
2021/01/07 11:53:05;;;;;;;4.45;4.05;;;;;;;6.67;74.08;93236.22;5105396;28;20027;-47
2021/01/07 11:55:34;;;;;;;;;;;;;;;6.69;73.68;93238.47;5104340;28;20034;-48
2021/01/07 11:58:00;;;;;;;10.67;7.03;;;;;;;6.75;74.35;93237.09;5099925;28;19959;-50
2021/01/07 12:00:26;;;;;;;8.45;5.30;;;;;;;6.69;75.11;93224.75;5101218;28;20023;-52
2021/01/07 12:02:52;;;;;;;18.80;9.02;;;;;;;6.61;75.83;93226.63;5100809;28;20024;-48
2021/01/07 12:05:20;;;;;;;14.13;6.78;;;;;;;6.59;75.64;93226.41;5102348;28;20035;-50
2021/01/07 12:08:03;;;;;;;5.78;4.72;;;;;;;6.67;75.21;93232.75;5101671;28;20561;-48